Time;durP1;ratioP1;P1;durP2;ratioP2;P2;SDS_P1;SDS_P2;PMS_P1;PMS_P2;Temp;Humidity;BMP_temperature;BMP_pressure;BME280_temperature;BME280_humidity;BME280_pressure;Samples;Min_cycle;Max_cycle;Signal;HPM_P1;HPM_P2
2021/08/23 00:00:18;;;;;;;9.15;5.57;;;16.40;99.90;;;;;;5061793;28;20045;-78
2021/08/23 00:02:44;;;;;;;13.00;5.57;;;16.30;99.90;;;;;;5045590;28;20040;-77
2021/08/23 00:05:12;;;;;;;9.68;5.40;;;16.30;99.90;;;;;;5050859;28;20126;-80
2021/08/23 00:07:38;;;;;;;9.82;5.53;;;16.30;99.90;;;;;;5066253;28;20044;-80
2021/08/23 00:10:04;;;;;;;7.57;5.13;;;16.30;99.90;;;;;;5046508;28;20029;-78
2021/08/23 00:12:30;;;;;;;14.32;5.10;;;16.30;99.90;;;;;;5056891;28;20036;-80
2021/08/23 00:14:57;;;;;;;9.70;5.50;;;16.30;99.90;;;;;;5049609;28;20045;-78
2021/08/23 00:17:23;;;;;;;11.85;5.60;;;16.30;99.90;;;;;;5067655;28;20468;-79
2021/08/23 00:19:49;;;;;;;12.25;5.32;;;16.30;99.90;;;;;;5054073;28;20067;-80
2021/08/23 00:24:48;;;;;;;10.75;5.53;;;16.30;99.90;;;;;;5052291;28;20112;-78
2021/08/23 00:27:14;;;;;;;9.40;5.35;;;16.20;99.90;;;;;;5057978;28;20039;-80
2021/08/23 00:29:40;;;;;;;12.85;6.05;;;16.20;99.90;;;;;;5076397;28;20768;-77
2021/08/23 00:32:06;;;;;;;16.38;6.25;;;16.20;99.90;;;;;;5058437;28;20048;-78
2021/08/23 00:34:32;;;;;;;11.70;5.90;;;16.20;99.90;;;;;;5027956;28;20057;-77
2021/08/23 00:36:58;;;;;;;15.80;5.30;;;16.20;99.90;;;;;;5067349;28;20045;-79
2021/08/23 00:39:24;;;;;;;7.68;4.90;;;16.20;99.90;;;;;;5049117;28;20520;-78
2021/08/23 00:41:49;;;;;;;20.45;5.82;;;16.20;99.90;;;;;;5057984;28;20050;-80
2021/08/23 00:44:15;;;;;;;11.82;5.30;;;16.20;99.90;;;;;;5063165;28;20041;-80
2021/08/23 00:46:41;;;;;;;11.57;5.25;;;16.30;99.90;;;;;;5050798;28;20067;-78
2021/08/23 00:49:06;;;;;;;14.13;5.80;;;16.30;99.90;;;;;;5074534;28;20056;-78
2021/08/23 00:51:34;;;;;;;11.45;5.55;;;16.30;99.90;;;;;;5050723;28;20131;-80
2021/08/23 00:54:00;;;;;;;10.52;5.40;;;16.20;99.90;;;;;;5048727;28;20051;-79
2021/08/23 00:56:26;;;;;;;9.13;5.13;;;16.20;99.90;;;;;;5054605;28;20032;-79
2021/08/23 00:58:53;;;;;;;12.98;5.80;;;16.20;99.90;;;;;;5053319;28;20100;-79
2021/08/23 01:01:35;;;;;;;10.63;5.38;;;16.20;99.90;;;;;;5054791;28;20097;-80
2021/08/23 01:04:19;;;;;;;9.50;5.00;;;16.20;99.90;;;;;;5035477;28;20055;-80
2021/08/23 01:06:45;;;;;;;10.10;5.30;;;16.20;99.90;;;;;;5042460;28;20029;-77
2021/08/23 01:09:13;;;;;;;17.27;4.25;;;16.20;99.90;;;;;;5065337;28;20037;-78
2021/08/23 01:11:49;;;;;;;15.93;4.82;;;16.20;99.90;;;;;;5061654;28;20061;-78
2021/08/23 01:14:14;;;;;;;19.98;5.00;;;16.20;99.90;;;;;;5056717;28;20098;-78
2021/08/23 01:16:41;;;;;;;12.55;5.22;;;16.20;99.90;;;;;;5054510;28;20037;-78
2021/08/23 01:19:08;;;;;;;11.38;4.93;;;16.10;99.90;;;;;;5055394;28;20515;-79
2021/08/23 01:21:35;;;;;;;10.05;4.88;;;16.10;99.90;;;;;;5065975;28;20072;-78
2021/08/23 01:24:02;;;;;;;12.73;5.15;;;16.10;99.90;;;;;;5067133;28;20033;-78
2021/08/23 01:26:42;;;;;;;11.77;4.88;;;16.20;99.90;;;;;;5043705;28;20507;-80
2021/08/23 01:29:20;;;;;;;14.23;5.20;;;16.10;99.90;;;;;;5069785;28;20052;-77
2021/08/23 01:31:52;;;;;;;20.30;5.72;;;16.10;99.90;;;;;;5049430;28;20054;-78
2021/08/23 01:34:20;;;;;;;17.52;4.75;;;16.10;99.90;;;;;;5043248;28;20041;-80
2021/08/23 01:36:46;;;;;;;12.93;4.70;;;16.00;99.90;;;;;;5046354;28;20112;-80
2021/08/23 01:39:12;;;;;;;11.95;4.93;;;16.00;99.90;;;;;;5048152;28;20029;-80
2021/08/23 01:41:38;;;;;;;14.98;4.65;;;16.00;99.90;;;;;;5049451;28;20080;-79
2021/08/23 01:44:04;;;;;;;11.35;4.50;;;15.90;99.90;;;;;;5056293;28;20216;-80
2021/08/23 01:46:31;;;;;;;10.88;4.38;;;15.90;99.90;;;;;;5046357;28;20028;-80
2021/08/23 01:48:59;;;;;;;12.82;4.40;;;15.90;99.90;;;;;;5035130;28;20049;-80
2021/08/23 01:51:29;;;;;;;10.43;4.82;;;15.90;99.90;;;;;;5057426;28;20075;-80
2021/08/23 01:53:55;;;;;;;15.07;4.93;;;16.00;99.90;;;;;;5063746;28;20064;-80
2021/08/23 01:56:24;;;;;;;13.50;5.20;;;15.90;99.90;;;;;;5047872;28;20094;-79
2021/08/23 01:58:50;;;;;;;11.70;5.05;;;15.80;99.90;;;;;;5065128;28;20364;-80
2021/08/23 02:01:16;;;;;;;16.58;4.82;;;15.80;99.90;;;;;;5072321;28;20082;-79
2021/08/23 02:03:42;;;;;;;11.02;4.97;;;15.80;99.90;;;;;;5052920;28;20045;-79
2021/08/23 02:06:09;;;;;;;19.33;5.40;;;15.70;99.90;;;;;;5058813;28;20492;-81
2021/08/23 02:08:34;;;;;;;13.23;4.95;;;15.80;99.90;;;;;;5048228;28;20029;-78
2021/08/23 02:11:00;;;;;;;10.23;4.68;;;15.70;99.90;;;;;;5046944;28;20102;-79
2021/08/23 02:13:26;;;;;;;11.98;4.78;;;15.80;99.90;;;;;;5060037;28;20072;-81
2021/08/23 02:15:52;;;;;;;12.38;5.25;;;15.80;99.90;;;;;;5052897;28;20135;-78
2021/08/23 02:18:18;;;;;;;13.52;5.63;;;15.80;99.90;;;;;;5053708;28;20135;-81
2021/08/23 02:20:44;;;;;;;15.07;5.10;;;15.80;99.90;;;;;;5051456;28;20120;-79
2021/08/23 02:23:10;;;;;;;11.63;4.90;;;15.80;99.90;;;;;;5057817;28;20037;-78
2021/08/23 02:25:36;;;;;;;12.27;4.82;;;15.90;99.90;;;;;;5045629;28;20033;-80
2021/08/23 02:28:02;;;;;;;13.68;5.50;;;15.90;99.90;;;;;;5047683;28;20052;-79
2021/08/23 02:30:28;;;;;;;12.95;5.00;;;15.90;99.90;;;;;;5056714;28;20435;-80
2021/08/23 02:32:54;;;;;;;14.93;5.55;;;15.90;99.90;;;;;;5039687;28;20128;-79
2021/08/23 02:35:21;;;;;;;16.30;4.82;;;15.90;99.90;;;;;;5063783;28;20041;-79
2021/08/23 02:37:47;;;;;;;9.48;5.10;;;15.90;99.90;;;;;;5046978;28;20032;-79
2021/08/23 02:40:13;;;;;;;13.98;5.28;;;16.00;99.90;;;;;;5050618;28;20063;-80
2021/08/23 02:42:40;;;;;;;11.75;5.13;;;16.00;99.90;;;;;;5061702;28;20029;-80
2021/08/23 02:45:07;;;;;;;14.55;5.30;;;16.00;99.90;;;;;;5046994;28;20477;-79
2021/08/23 02:47:36;;;;;;;18.88;5.05;;;16.10;99.90;;;;;;5042978;28;20064;-80
2021/08/23 02:50:08;;;;;;;17.98;4.82;;;16.00;99.90;;;;;;5053647;28;20160;-79
2021/08/23 02:52:35;;;;;;;10.05;4.50;;;16.00;99.90;;;;;;5069417;28;20047;-78
2021/08/23 02:55:01;;;;;;;10.75;4.10;;;16.10;99.90;;;;;;5064374;28;20448;-78
2021/08/23 02:57:27;;;;;;;12.32;3.90;;;16.10;99.90;;;;;;5047109;28;20104;-78
2021/08/23 02:59:52;;;;;;;8.07;3.83;;;16.10;99.90;;;;;;5057705;28;20459;-79
2021/08/23 03:02:18;;;;;;;12.98;3.63;;;16.10;99.90;;;;;;5048478;28;20041;-80
2021/08/23 03:04:44;;;;;;;11.13;3.53;;;16.10;99.90;;;;;;5067826;28;20053;-80
2021/08/23 03:07:10;;;;;;;9.63;3.53;;;16.10;99.90;;;;;;5045516;28;20052;-79
2021/08/23 03:09:35;;;;;;;9.25;3.90;;;16.10;99.90;;;;;;5052296;28;20052;-80
2021/08/23 03:12:01;;;;;;;8.00;3.67;;;16.10;99.90;;;;;;5064795;28;20573;-80
2021/08/23 03:14:27;;;;;;;13.73;4.05;;;16.10;99.90;;;;;;5052821;28;20156;-78
2021/08/23 03:16:53;;;;;;;8.60;3.17;;;16.10;99.90;;;;;;5055308;28;20036;-78
2021/08/23 03:19:19;;;;;;;11.45;4.00;;;16.00;99.90;;;;;;5050842;28;20045;-78
2021/08/23 03:21:44;;;;;;;8.75;3.03;;;16.10;99.90;;;;;;5054215;28;20076;-79
2021/08/23 03:24:11;;;;;;;7.88;3.58;;;16.00;99.90;;;;;;5048490;28;20441;-80
2021/08/23 03:26:38;;;;;;;10.15;3.20;;;16.10;99.90;;;;;;5042337;28;20096;-80
2021/08/23 03:29:04;;;;;;;8.02;3.42;;;16.10;99.90;;;;;;5049406;28;20050;-77
2021/08/23 03:31:30;;;;;;;11.90;3.60;;;16.00;99.90;;;;;;5061272;28;20484;-79
2021/08/23 03:33:56;;;;;;;6.93;3.00;;;16.00;99.90;;;;;;5047644;28;20056;-77
2021/08/23 03:36:23;;;;;;;7.40;3.03;;;16.00;99.90;;;;;;5066814;28;20064;-79
2021/08/23 03:38:49;;;;;;;6.40;3.13;;;15.90;99.90;;;;;;5060793;28;20075;-78
2021/08/23 03:41:16;;;;;;;11.45;3.40;;;15.90;99.90;;;;;;5045650;28;20495;-80
2021/08/23 03:43:42;;;;;;;14.60;3.53;;;15.90;99.90;;;;;;5058408;28;20028;-78
2021/08/23 03:46:08;;;;;;;9.20;3.45;;;15.80;99.90;;;;;;5046617;28;20459;-80
2021/08/23 03:48:34;;;;;;;11.15;3.58;;;15.90;99.90;;;;;;5050729;28;20061;-79
2021/08/23 03:51:00;;;;;;;10.48;3.97;;;15.80;99.90;;;;;;5050392;28;20049;-80
2021/08/23 03:53:26;;;;;;;8.68;3.50;;;15.70;99.90;;;;;;5066631;28;20033;-78
2021/08/23 03:55:51;;;;;;;7.28;3.67;;;15.70;99.90;;;;;;5048502;28;20052;-80
2021/08/23 03:58:17;;;;;;;11.38;3.40;;;15.70;99.90;;;;;;5048015;28;20029;-80
2021/08/23 04:00:43;;;;;;;14.80;4.07;;;15.70;99.90;;;;;;5049065;28;20057;-80
2021/08/23 04:03:09;;;;;;;11.68;3.55;;;15.60;99.90;;;;;;5048012;28;20033;-79
2021/08/23 04:05:35;;;;;;;14.73;3.78;;;15.60;99.90;;;;;;5049981;28;20089;-79
2021/08/23 04:08:01;;;;;;;13.00;3.50;;;15.60;99.90;;;;;;5076555;28;20499;-78
2021/08/23 04:10:27;;;;;;;12.20;4.25;;;15.60;99.90;;;;;;5046093;28;20029;-79
2021/08/23 04:12:52;;;;;;;11.30;3.58;;;15.70;99.90;;;;;;5065552;28;20053;-80
2021/08/23 04:15:19;;;;;;;17.55;4.03;;;15.60;99.90;;;;;;5038004;28;20349;-77
2021/08/23 04:17:45;;;;;;;9.82;3.55;;;15.60;99.90;;;;;;5048085;28;20048;-78
2021/08/23 04:20:12;;;;;;;11.52;3.95;;;15.60;99.90;;;;;;5053063;28;20059;-79
2021/08/23 04:22:39;;;;;;;9.88;3.72;;;15.60;99.90;;;;;;5048629;28;20059;-79
2021/08/23 04:25:05;;;;;;;13.13;3.65;;;15.60;99.90;;;;;;5052496;28;20029;-80
2021/08/23 04:27:31;;;;;;;9.75;3.80;;;15.60;99.90;;;;;;5051563;28;20041;-79
2021/08/23 04:29:56;;;;;;;8.20;3.08;;;15.70;99.90;;;;;;5045584;28;20049;-78
2021/08/23 04:32:22;;;;;;;14.27;3.80;;;15.60;99.90;;;;;;5055247;28;20045;-79
2021/08/23 04:34:48;;;;;;;8.93;3.75;;;15.60;99.90;;;;;;5050408;28;20079;-77
2021/08/23 04:37:14;;;;;;;9.60;3.47;;;15.60;99.90;;;;;;5048744;28;20072;-78
2021/08/23 04:39:39;;;;;;;9.55;3.75;;;15.60;99.90;;;;;;5049445;28;20048;-78
2021/08/23 04:42:06;;;;;;;14.50;3.60;;;15.60;99.90;;;;;;5049573;28;20784;-80
2021/08/23 04:44:32;;;;;;;13.60;3.30;;;15.50;99.90;;;;;;5049663;28;20356;-77
2021/08/23 04:47:01;;;;;;;12.40;3.47;;;15.50;99.90;;;;;;5058628;28;20053;-82
2021/08/23 04:49:27;;;;;;;9.93;3.80;;;15.50;99.90;;;;;;5052880;28;20048;-80
2021/08/23 04:51:53;;;;;;;12.10;3.88;;;15.60;99.90;;;;;;5051224;28;20029;-78
2021/08/23 04:54:18;;;;;;;12.10;3.35;;;15.60;99.90;;;;;;5047108;28;20037;-79
2021/08/23 04:56:47;;;;;;;10.90;3.78;;;15.60;99.90;;;;;;5063265;28;20041;-77
2021/08/23 04:59:15;;;;;;;11.48;3.80;;;15.60;99.90;;;;;;5053094;28;20041;-77
2021/08/23 05:01:41;;;;;;;12.23;3.58;;;15.60;99.90;;;;;;5043781;28;20029;-80
2021/08/23 05:04:07;;;;;;;11.38;3.67;;;15.60;99.90;;;;;;5046025;28;22016;-80
2021/08/23 05:06:33;;;;;;;10.93;3.63;;;15.80;99.90;;;;;;5047790;28;20036;-82
2021/08/23 05:08:59;;;;;;;15.73;3.90;;;15.80;99.90;;;;;;5048839;28;20029;-81
2021/08/23 05:11:25;;;;;;;8.82;3.40;;;15.80;99.90;;;;;;5045699;28;20663;-82
2021/08/23 05:13:51;;;;;;;7.93;3.33;;;15.80;99.90;;;;;;5047066;28;20050;-82
2021/08/23 05:16:20;;;;;;;12.77;3.67;;;15.80;99.90;;;;;;5044565;28;20050;-81
2021/08/23 05:18:45;;;;;;;9.35;3.70;;;15.80;99.90;;;;;;5043718;28;20033;-81
2021/08/23 05:21:12;;;;;;;12.05;4.30;;;15.80;99.90;;;;;;5045720;28;20464;-79
2021/08/23 05:23:38;;;;;;;10.52;3.50;;;15.80;99.90;;;;;;5047102;28;20083;-81
2021/08/23 05:26:09;;;;;;;14.93;3.90;;;15.90;99.90;;;;;;5042598;28;20428;-81
2021/08/23 05:28:35;;;;;;;7.18;3.38;;;15.90;99.90;;;;;;5021695;28;20123;-82
2021/08/23 05:31:01;;;;;;;7.75;3.67;;;16.00;99.90;;;;;;5046623;28;20048;-77
2021/08/23 05:33:27;;;;;;;10.25;3.55;;;16.00;99.90;;;;;;5054227;28;20128;-76
2021/08/23 05:35:53;;;;;;;16.48;3.90;;;16.00;99.90;;;;;;5050516;28;20449;-77
2021/08/23 05:38:18;;;;;;;11.70;3.80;;;16.10;99.90;;;;;;5051607;28;20071;-75
2021/08/23 05:40:44;;;;;;;16.05;3.92;;;16.10;99.90;;;;;;5064802;28;20345;-78
2021/08/23 05:43:10;;;;;;;14.25;3.92;;;16.30;99.90;;;;;;5052361;28;20040;-78
2021/08/23 05:45:36;;;;;;;10.77;3.33;;;16.20;99.90;;;;;;5048298;28;20506;-78
2021/08/23 05:48:08;;;;;;;10.65;3.72;;;16.20;99.90;;;;;;5074247;28;20488;-80
2021/08/23 05:50:34;;;;;;;11.35;3.58;;;16.30;99.90;;;;;;5063805;28;20037;-80
2021/08/23 05:53:00;;;;;;;10.43;3.65;;;16.40;99.90;;;;;;5047982;28;20515;-75
2021/08/23 05:55:26;;;;;;;14.85;3.88;;;16.40;99.90;;;;;;5044792;28;20045;-75
2021/08/23 05:57:52;;;;;;;10.07;3.38;;;16.50;99.90;;;;;;5049875;28;20353;-78
2021/08/23 06:00:19;;;;;;;11.45;3.92;;;16.50;99.90;;;;;;5051762;28;20523;-80
2021/08/23 06:02:45;;;;;;;11.27;3.33;;;16.50;99.90;;;;;;5053596;28;20116;-79
2021/08/23 06:05:11;;;;;;;10.68;3.65;;;16.60;99.90;;;;;;5051088;28;20075;-78
2021/08/23 06:07:38;;;;;;;8.55;3.10;;;16.60;99.90;;;;;;5049881;28;20173;-78
2021/08/23 06:10:04;;;;;;;10.65;3.13;;;16.70;99.90;;;;;;5046365;28;20476;-78
2021/08/23 06:12:30;;;;;;;10.75;3.83;;;16.70;99.90;;;;;;5065800;28;20041;-77
2021/08/23 06:14:56;;;;;;;12.27;3.70;;;16.80;99.90;;;;;;5045394;28;20042;-77
2021/08/23 06:17:21;;;;;;;8.05;3.55;;;16.80;99.90;;;;;;5050216;28;20071;-78
2021/08/23 06:19:47;;;;;;;9.15;3.38;;;16.80;99.90;;;;;;5049676;28;20464;-78
2021/08/23 06:22:14;;;;;;;7.18;3.42;;;16.80;99.90;;;;;;5062132;28;20399;-77
2021/08/23 06:24:40;;;;;;;15.80;3.95;;;16.80;99.90;;;;;;5068184;28;20091;-77
2021/08/23 06:27:06;;;;;;;7.32;3.05;;;16.90;99.90;;;;;;5048391;28;20045;-77
2021/08/23 06:29:31;;;;;;;9.23;3.25;;;16.90;99.90;;;;;;5059614;28;20048;-77
2021/08/23 06:31:57;;;;;;;14.00;3.88;;;17.00;99.90;;;;;;5052352;28;20036;-77
2021/08/23 06:34:23;;;;;;;12.90;3.50;;;17.10;99.90;;;;;;5050154;28;20392;-78
2021/08/23 06:36:49;;;;;;;9.75;3.33;;;17.10;99.90;;;;;;5066617;28;20044;-77
2021/08/23 06:39:14;;;;;;;10.20;3.20;;;17.10;99.90;;;;;;5057474;28;20136;-77
2021/08/23 06:41:40;;;;;;;12.48;3.30;;;17.20;99.90;;;;;;5052595;28;20037;-77
2021/08/23 06:44:07;;;;;;;10.95;3.20;;;17.30;99.90;;;;;;5050074;28;20120;-78
2021/08/23 06:46:33;;;;;;;7.22;3.17;;;17.30;99.90;;;;;;5044910;28;20110;-79
2021/08/23 06:49:00;;;;;;;6.38;2.95;;;17.30;99.90;;;;;;5050096;28;20488;-78
2021/08/23 06:51:26;;;;;;;9.73;3.25;;;17.40;99.90;;;;;;5044374;28;20933;-78
2021/08/23 06:53:52;;;;;;;7.97;3.17;;;17.40;99.90;;;;;;5049531;28;20041;-80
2021/08/23 06:56:18;;;;;;;10.48;3.10;;;17.50;99.90;;;;;;5049179;28;20498;-79
2021/08/23 06:58:44;;;;;;;10.68;2.85;;;17.50;99.90;;;;;;5047598;28;20041;-78
2021/08/23 07:01:10;;;;;;;8.20;2.88;;;17.60;99.90;;;;;;5051573;28;20149;-78
2021/08/23 07:03:36;;;;;;;6.63;2.70;;;17.60;99.90;;;;;;5058908;28;20136;-78
2021/08/23 07:06:06;;;;;;;9.93;2.70;;;17.60;99.90;;;;;;5063925;28;20032;-78
2021/08/23 07:08:33;;;;;;;8.13;2.80;;;17.70;99.90;;;;;;5054350;28;20040;-79
2021/08/23 07:11:01;;;;;;;11.18;2.63;;;17.70;99.90;;;;;;5056881;28;20132;-78
2021/08/23 07:13:29;;;;;;;9.82;2.45;;;17.90;99.90;;;;;;5061202;28;20037;-79
2021/08/23 07:16:04;;;;;;;7.80;2.20;;;18.00;99.90;;;;;;5065047;28;20400;-79
2021/08/23 07:18:31;;;;;;;6.32;2.13;;;18.10;99.90;;;;;;5051233;28;20040;-80
2021/08/23 07:20:57;;;;;;;7.72;1.95;;;18.00;99.90;;;;;;5067100;28;20045;-79
2021/08/23 07:23:26;;;;;;;4.55;2.15;;;18.00;99.90;;;;;;5062698;28;20124;-80
2021/08/23 07:25:52;;;;;;;8.80;1.80;;;17.90;99.90;;;;;;5054431;28;20048;-79
2021/08/23 07:28:18;;;;;;;6.85;1.90;;;17.90;99.90;;;;;;5066083;28;20055;-80
2021/08/23 07:30:45;;;;;;;7.57;1.75;;;17.80;99.90;;;;;;5076311;28;20079;-85
2021/08/23 07:33:11;;;;;;;5.70;1.70;;;17.80;99.90;;;;;;5071623;28;20052;-80
2021/08/23 07:35:39;;;;;;;4.07;1.58;;;17.90;99.90;;;;;;5050362;28;20120;-81
2021/08/23 07:38:05;;;;;;;4.70;1.80;;;17.80;99.90;;;;;;5057535;28;20033;-81
2021/08/23 07:40:31;;;;;;;7.47;1.58;;;17.80;99.90;;;;;;5042718;28;20067;-77
2021/08/23 07:42:57;;;;;;;7.55;2.17;;;17.90;99.90;;;;;;5051000;28;20047;-76
2021/08/23 07:45:23;;;;;;;6.20;1.70;;;17.90;99.90;;;;;;5052964;28;20037;-76
2021/08/23 07:47:51;;;;;;;7.30;1.70;;;17.90;99.90;;;;;;5053961;28;20473;-76
2021/08/23 07:50:17;;;;;;;14.73;1.88;;;18.00;99.90;;;;;;5074921;28;20037;-75
2021/08/23 07:52:43;;;;;;;8.90;1.92;;;18.10;99.90;;;;;;5050635;28;20056;-75
2021/08/23 07:55:10;;;;;;;9.15;1.75;;;18.20;99.90;;;;;;5052714;28;20032;-78
2021/08/23 07:57:47;;;;;;;4.40;1.58;;;18.10;99.90;;;;;;5043216;28;20141;-77
2021/08/23 08:00:15;;;;;;;6.38;2.05;;;18.20;99.90;;;;;;5039464;28;20041;-78
2021/08/23 08:02:41;;;;;;;9.68;1.60;;;18.30;99.90;;;;;;5053393;28;20032;-77
2021/08/23 08:05:08;;;;;;;7.43;1.75;;;18.30;99.90;;;;;;5054322;28;20554;-77
2021/08/23 08:07:34;;;;;;;6.47;2.00;;;18.30;99.90;;;;;;5051682;28;20095;-76
2021/08/23 08:10:00;;;;;;;6.78;1.88;;;18.30;99.90;;;;;;5048880;28;20102;-80
2021/08/23 08:12:28;;;;;;;7.85;2.33;;;18.20;99.90;;;;;;5046403;28;20045;-77
2021/08/23 08:14:54;;;;;;;8.85;1.80;;;18.30;99.90;;;;;;5041527;28;20029;-80
2021/08/23 08:17:21;;;;;;;4.88;1.70;;;18.20;99.90;;;;;;5054869;28;20327;-81
2021/08/23 08:19:47;;;;;;;10.20;1.80;;;18.40;99.90;;;;;;5061147;28;20128;-81
2021/08/23 08:22:16;;;;;;;6.88;1.65;;;18.50;99.90;;;;;;5060962;28;20491;-81
2021/08/23 08:24:43;;;;;;;6.18;1.80;;;18.50;99.90;;;;;;5053957;28;20460;-78
2021/08/23 08:27:09;;;;;;;4.40;1.98;;;18.40;99.90;;;;;;5046812;28;20040;-80
2021/08/23 08:29:36;;;;;;;7.93;2.08;;;18.40;99.90;;;;;;5068818;28;20060;-79
2021/08/23 08:32:02;;;;;;;6.97;1.80;;;18.40;99.90;;;;;;5059022;28;20076;-80
2021/08/23 08:34:28;;;;;;;6.00;1.80;;;18.40;99.90;;;;;;5049864;28;20052;-80
2021/08/23 08:36:54;;;;;;;4.90;1.75;;;18.50;99.90;;;;;;5053617;28;20053;-81
2021/08/23 08:39:21;;;;;;;4.75;1.80;;;18.50;99.90;;;;;;5074249;28;20049;-83
2021/08/23 08:41:47;;;;;;;6.63;1.83;;;18.60;99.90;;;;;;5065157;28;20092;-81
2021/08/23 08:44:12;;;;;;;6.43;1.45;;;18.60;99.90;;;;;;5059778;28;20128;-81
2021/08/23 08:46:45;;;;;;;5.57;1.67;;;18.60;99.90;;;;;;5060553;28;20060;-79
2021/08/23 08:49:12;;;;;;;2.92;1.30;;;18.60;99.90;;;;;;5059278;28;20048;-79
2021/08/23 08:51:45;;;;;;;7.68;1.20;;;18.50;99.90;;;;;;5035120;28;20100;-78
2021/08/23 08:54:11;;;;;;;6.55;1.33;;;18.60;99.90;;;;;;5055925;28;20119;-76
2021/08/23 08:56:36;;;;;;;8.20;1.58;;;18.60;99.90;;;;;;5048307;28;20067;-79
2021/08/23 08:59:05;;;;;;;2.83;1.10;;;18.60;99.90;;;;;;5050635;28;20052;-79
2021/08/23 09:01:31;;;;;;;6.90;1.60;;;18.60;99.90;;;;;;5072463;28;20132;-77
2021/08/23 09:04:04;;;;;;;4.13;1.35;;;18.50;99.90;;;;;;5053321;28;20151;-77
2021/08/23 09:06:41;;;;;;;2.67;0.93;;;18.70;99.90;;;;;;5053015;28;20041;-79
2021/08/23 09:09:12;;;;;;;6.18;1.40;;;18.60;99.90;;;;;;5062388;28;20115;-77
2021/08/23 09:11:40;;;;;;;3.63;1.20;;;18.70;99.90;;;;;;5047038;28;20459;-76
2021/08/23 09:14:08;;;;;;;5.57;1.20;;;18.70;99.90;;;;;;5045029;28;20120;-78
2021/08/23 09:17:06;;;;;;;4.80;1.30;;;18.90;99.90;;;;;;5039384;28;20128;-78
2021/08/23 09:19:42;;;;;;;2.92;1.10;;;18.90;99.90;;;;;;5046970;28;20056;-76
2021/08/23 09:22:16;;;;;;;4.90;1.42;;;19.00;99.90;;;;;;5062293;28;20443;-77
2021/08/23 09:24:43;;;;;;;4.07;1.15;;;19.00;99.90;;;;;;5044049;28;20108;-76
2021/08/23 09:27:32;;;;;;;4.63;1.25;;;19.00;99.90;;;;;;5044671;28;20140;-78
2021/08/23 09:30:01;;;;;;;2.97;1.20;;;19.00;99.90;;;;;;5059239;28;20044;-77
2021/08/23 09:32:34;;;;;;;3.83;1.33;;;19.10;99.90;;;;;;5055405;28;20471;-79
2021/08/23 09:35:06;;;;;;;;;;;19.20;99.90;;;;;;5052364;28;20120;-79
2021/08/23 09:37:48;;;;;;;3.42;1.10;;;19.30;99.90;;;;;;5059766;28;19923;-78
2021/08/23 09:40:26;;;;;;;4.10;1.20;;;19.30;99.90;;;;;;5058470;28;20827;-77
2021/08/23 09:43:03;;;;;;;5.70;1.13;;;19.30;99.90;;;;;;5046736;28;20049;-82
2021/08/23 09:45:30;;;;;;;11.82;1.35;;;19.40;99.90;;;;;;5064755;28;20886;-81
2021/08/23 09:48:04;;;;;;;4.10;1.20;;;19.40;99.90;;;;;;5053246;28;20112;-79
2021/08/23 09:50:45;;;;;;;2.28;1.15;;;19.50;99.90;;;;;;5060648;28;20116;-79
2021/08/23 09:53:14;;;;;;;4.32;1.20;;;19.60;99.90;;;;;;5048456;28;20116;-80
2021/08/23 09:55:44;;;;;;;4.28;1.20;;;19.60;99.90;;;;;;5055684;28;20108;-81
2021/08/23 09:58:11;;;;;;;2.65;1.20;;;19.60;99.90;;;;;;5049317;28;20475;-81
2021/08/23 10:00:39;;;;;;;3.67;1.30;;;19.60;99.90;;;;;;5050114;28;20136;-80
2021/08/23 10:03:15;;;;;;;3.45;1.02;;;19.70;99.90;;;;;;5044615;28;20092;-79
2021/08/23 10:05:47;;;;;;;3.25;1.13;;;19.70;99.90;;;;;;5064148;28;20051;-80
2021/08/23 10:08:20;;;;;;;2.40;1.27;;;19.90;99.90;;;;;;5057259;28;20040;-81
2021/08/23 10:10:55;;;;;;;5.07;1.30;;;19.90;99.90;;;;;;5060790;28;20035;-79
2021/08/23 10:13:23;;;;;;;;;;;20.10;99.90;;;;;;5048361;28;20379;-82
2021/08/23 10:15:49;;;;;;;5.50;1.20;;;20.10;99.90;;;;;;5047554;28;19921;-82
2021/08/23 10:18:16;;;;;;;4.32;1.25;;;20.10;99.90;;;;;;5056834;28;20551;-82
2021/08/23 10:20:42;;;;;;;2.42;1.30;;;20.10;99.90;;;;;;5066146;28;20080;-79
2021/08/23 10:23:09;;;;;;;7.10;1.60;;;20.30;99.90;;;;;;5056998;28;20065;-79
2021/08/23 10:25:36;;;;;;;28.70;3.60;;;20.30;99.90;;;;;;5063650;28;20052;-81
2021/08/23 10:28:12;;;;;;;31.38;3.33;;;20.50;99.90;;;;;;5063986;28;20041;-81
2021/08/23 10:30:39;;;;;;;18.63;2.75;;;20.50;99.90;;;;;;5032614;28;20466;-80
2021/08/23 10:33:33;;;;;;;5.60;1.30;;;20.40;99.90;;;;;;5042227;28;20049;-80
2021/08/23 10:35:59;;;;;;;18.63;3.10;;;20.50;99.90;;;;;;5039936;28;20127;-81
2021/08/23 10:38:27;;;;;;;4.95;1.67;;;20.70;99.90;;;;;;5056050;28;20391;-78
2021/08/23 10:41:25;;;;;;;5.60;1.45;;;20.90;99.90;;;;;;5064514;28;20049;-76
2021/08/23 10:43:53;;;;;;;3.67;1.55;;;21.00;99.90;;;;;;5055450;28;20037;-77
2021/08/23 10:46:28;;;;;;;4.13;1.58;;;20.90;99.90;;;;;;5073965;28;20041;-76
2021/08/23 10:48:56;;;;;;;3.10;1.60;;;21.10;99.90;;;;;;5068950;28;20045;-76
2021/08/23 10:51:36;;;;;;;3.63;1.65;;;21.30;99.90;;;;;;5075306;28;20079;-78
2021/08/23 10:54:21;;;;;;;4.53;1.60;;;21.10;99.90;;;;;;5046771;28;20554;-78
2021/08/23 10:56:59;;;;;;;9.57;1.80;;;21.00;99.90;;;;;;5085453;28;20044;-81
2021/08/23 10:59:54;;;;;;;7.32;1.85;;;21.10;99.90;;;;;;5056780;28;20349;-80
2021/08/23 11:02:36;;;;;;;5.50;1.77;;;21.30;99.90;;;;;;5042127;28;20480;-80
2021/08/23 11:05:06;;;;;;;5.00;1.77;;;21.50;99.90;;;;;;5051608;28;20499;-83
2021/08/23 11:07:35;;;;;;;2.97;1.58;;;21.70;99.90;;;;;;5049580;28;20059;-83
2021/08/23 11:10:09;;;;;;;6.53;1.40;;;21.80;99.90;;;;;;5033593;28;20037;-81
2021/08/23 11:12:49;;;;;;;4.40;1.70;;;22.00;99.90;;;;;;5046307;28;20041;-79
2021/08/23 11:15:24;;;;;;;5.85;1.67;;;21.90;99.90;;;;;;5068422;28;20075;-81
2021/08/23 11:17:52;;;;;;;2.03;1.30;;;22.10;99.90;;;;;;5040605;28;20091;-82
2021/08/23 11:20:23;;;;;;;3.10;1.42;;;22.40;99.90;;;;;;5063409;28;20502;-80
2021/08/23 11:22:57;;;;;;;2.30;1.40;;;22.40;99.90;;;;;;5055169;28;20120;-81
2021/08/23 11:25:31;;;;;;;4.55;1.50;;;22.20;99.90;;;;;;5049996;28;20080;-80
2021/08/23 11:28:03;;;;;;;2.35;1.30;;;22.30;99.90;;;;;;5049864;28;20422;-76
2021/08/23 11:30:39;;;;;;;4.55;1.25;;;22.60;99.90;;;;;;5042082;28;20119;-81
2021/08/23 11:33:06;;;;;;;3.33;1.30;;;22.70;99.90;;;;;;5056041;28;20060;-78
2021/08/23 11:35:34;;;;;;;5.53;1.50;;;22.70;99.90;;;;;;5044874;28;20037;-79
2021/08/23 11:38:08;;;;;;;3.63;1.30;;;22.60;99.90;;;;;;5045765;28;20073;-81
2021/08/23 11:40:36;;;;;;;4.20;1.20;;;22.80;99.90;;;;;;5063368;28;20033;-80
2021/08/23 11:43:04;;;;;;;2.50;1.30;;;22.60;99.90;;;;;;5025583;28;20052;-80
2021/08/23 11:45:33;;;;;;;5.70;1.60;;;22.50;99.90;;;;;;5048708;28;20143;-82
2021/08/23 11:48:01;;;;;;;4.13;1.40;;;22.80;99.90;;;;;;5052465;28;20060;-80
2021/08/23 11:50:28;;;;;;;7.20;1.77;;;23.10;99.90;;;;;;5032133;28;20099;-84
2021/08/23 11:53:00;;;;;;;6.00;1.30;;;23.00;99.90;;;;;;5051048;28;20127;-79
2021/08/23 11:55:29;;;;;;;3.23;1.27;;;23.10;99.90;;;;;;5048212;28;20408;-82
2021/08/23 11:57:58;;;;;;;2.75;1.40;;;23.00;99.90;;;;;;5048643;28;20127;-80
2021/08/23 12:00:24;;;;;;;4.25;1.60;;;23.00;99.90;;;;;;5047784;28;20041;-82
2021/08/23 12:03:02;;;;;;;4.78;1.52;;;22.80;99.90;;;;;;5049635;28;20475;-80
2021/08/23 12:05:40;;;;;;;4.80;1.48;;;22.90;99.90;;;;;;5043097;28;20052;-79
2021/08/23 12:08:07;;;;;;;5.53;1.80;;;23.20;99.90;;;;;;5052250;28;20036;-81
2021/08/23 12:10:36;;;;;;;4.50;1.50;;;23.20;99.90;;;;;;5038449;28;20127;-80
2021/08/23 12:13:17;;;;;;;17.90;1.83;;;23.00;99.90;;;;;;5056254;28;20049;-80
2021/08/23 12:15:57;;;;;;;4.43;1.67;;;23.00;99.90;;;;;;5055699;28;20029;-80
2021/08/23 12:18:43;;;;;;;6.13;1.50;;;23.10;99.90;;;;;;5054425;28;20062;-80
2021/08/23 12:21:27;;;;;;;4.45;1.55;;;23.20;99.90;;;;;;5041894;28;20139;-81
2021/08/23 12:24:04;;;;;;;4.57;1.40;;;23.50;99.90;;;;;;5050286;28;20068;-80
2021/08/23 12:26:53;;;;;;;4.10;1.58;;;23.50;99.90;;;;;;5065404;28;20039;-80
2021/08/23 12:29:28;;;;;;;3.13;1.20;;;23.60;99.90;;;;;;5052952;28;20041;-79
2021/08/23 12:31:59;;;;;;;5.85;1.40;;;23.60;99.90;;;;;;5029737;28;20048;-80
2021/08/23 12:34:29;;;;;;;3.60;1.40;;;23.70;99.90;;;;;;5047136;28;20064;-80
2021/08/23 12:37:02;;;;;;;2.70;1.35;;;23.50;99.90;;;;;;5054914;28;20052;-82
2021/08/23 12:39:29;;;;;;;4.10;1.50;;;23.60;99.90;;;;;;5057187;28;20047;-79
2021/08/23 12:41:59;;;;;;;2.45;1.25;;;23.50;99.90;;;;;;5043521;28;20157;-82
2021/08/23 12:44:25;;;;;;;5.03;1.65;;;23.50;99.90;;;;;;5052200;28;20085;-80
2021/08/23 12:46:51;;;;;;;7.53;1.70;;;23.30;99.90;;;;;;5062727;28;20410;-79
2021/08/23 12:49:19;;;;;;;4.13;1.42;;;23.10;99.90;;;;;;5044095;28;20053;-81
2021/08/23 12:51:47;;;;;;;2.88;1.55;;;23.20;99.90;;;;;;5028863;28;20087;-79